createdAt,value
2023-03-21T00:01:53.203Z,23.42
2023-03-21T00:04:20.698Z,21.67
2023-03-21T00:06:48.135Z,21.25
2023-03-21T00:09:16.424Z,22.55
2023-03-21T00:11:44.113Z,20.55
2023-03-21T00:14:15.261Z,20.27
2023-03-21T00:16:46.304Z,19.92
2023-03-21T00:19:16.083Z,23.20
2023-03-21T00:21:59.572Z,20.17
2023-03-21T00:24:32.905Z,21.05
2023-03-21T00:27:24.635Z,22.92
2023-03-21T00:29:51.202Z,23.33
2023-03-21T00:32:18.914Z,24.25
2023-03-21T00:35:01.533Z,27.23
2023-03-21T00:37:35.590Z,22.45
2023-03-21T00:40:16.297Z,22.50
2023-03-21T00:42:48.190Z,24.85
2023-03-21T00:45:16.760Z,29.92
2023-03-21T00:47:44.213Z,26.83
2023-03-21T00:50:13.172Z,27.33
2023-03-21T00:52:41.436Z,30.27
2023-03-21T00:55:16.699Z,34.15
2023-03-21T00:57:47.523Z,28.65
2023-03-21T01:00:21.500Z,28.02
2023-03-21T01:03:04.286Z,28.73
2023-03-21T01:05:57.648Z,30.65
2023-03-21T01:08:33.063Z,27.92
2023-03-21T01:11:08.444Z,25.92
2023-03-21T01:13:40.896Z,37.85
2023-03-21T01:16:12.094Z,35.22
2023-03-21T01:18:41.318Z,30.42
2023-03-21T01:21:14.344Z,32.15
2023-03-21T01:23:43.312Z,33.58
2023-03-21T01:26:12.837Z,32.97
2023-03-21T01:28:42.040Z,33.88
2023-03-21T01:31:12.648Z,31.60
2023-03-21T01:33:41.084Z,37.90
2023-03-21T01:36:13.144Z,37.58
2023-03-21T01:38:42.946Z,39.75
2023-03-21T01:41:20.581Z,37.30
2023-03-21T01:43:48.079Z,38.47
2023-03-21T01:46:32.273Z,35.95
2023-03-21T01:49:09.059Z,38.33
2023-03-21T01:51:42.443Z,40.83
2023-03-21T01:54:20.322Z,30.70
2023-03-21T01:56:48.260Z,35.58
2023-03-21T01:59:21.843Z,31.60
2023-03-21T02:01:53.203Z,32.70
2023-03-21T02:04:28.144Z,35.80
2023-03-21T02:07:01.758Z,36.35
2023-03-21T02:09:33.655Z,38.05
2023-03-21T02:12:04.618Z,36.42
2023-03-21T02:14:34.788Z,33.35
2023-03-21T02:17:13.757Z,32.72
2023-03-21T02:20:31.851Z,32.28
2023-03-21T02:23:31.473Z,33.88
2023-03-21T02:26:39.527Z,32.42
2023-03-21T02:29:26.583Z,30.08
2023-03-21T02:32:16.498Z,31.48
2023-03-21T02:35:08.599Z,32.15
2023-03-21T02:37:44.626Z,31.33
2023-03-21T02:40:18.430Z,29.65
2023-03-21T02:43:00.749Z,36.67
2023-03-21T02:45:35.045Z,37.55
2023-03-21T02:48:10.060Z,37.65
2023-03-21T02:50:43.821Z,42.90
2023-03-21T02:53:17.625Z,37.70
2023-03-21T02:55:47.760Z,40.80
2023-03-21T02:58:19.970Z,46.67
2023-03-21T03:00:49.637Z,41.58
2023-03-21T03:03:27.890Z,38.33
2023-03-21T03:06:02.764Z,41.97
2023-03-21T03:08:50.151Z,39.25
2023-03-21T03:11:29.024Z,35.45
2023-03-21T03:14:35.760Z,43.15
2023-03-21T03:17:11.189Z,38.40
2023-03-21T03:19:51.504Z,32.88
2023-03-21T03:25:04.745Z,38.40
2023-03-21T03:27:44.842Z,42.72
2023-03-21T03:30:14.417Z,40.42
2023-03-21T03:32:50.886Z,44.65
2023-03-21T03:35:20.606Z,36.75
2023-03-21T03:37:52.109Z,42.40
2023-03-21T03:40:26.183Z,39.63
2023-03-21T03:42:59.884Z,37.88
2023-03-21T03:45:32.609Z,34.90
2023-03-21T03:48:08.413Z,41.05
2023-03-21T03:50:42.648Z,36.88
2023-03-21T03:55:50.437Z,31.42
2023-03-21T03:58:24.034Z,37.83
2023-03-21T04:00:55.113Z,32.92
2023-03-21T04:03:22.718Z,37.83
2023-03-21T04:05:50.763Z,37.00
2023-03-21T04:08:18.496Z,38.58
2023-03-21T04:10:47.680Z,38.83
2023-03-21T04:13:15.558Z,37.15
2023-03-21T04:15:44.650Z,35.08
2023-03-21T04:18:12.818Z,33.45
2023-03-21T04:23:11.404Z,39.60
2023-03-21T04:25:53.987Z,46.28
2023-03-21T04:28:26.317Z,37.67
2023-03-21T04:31:03.557Z,38.83
2023-03-21T04:33:38.609Z,39.83
2023-03-21T04:36:26.624Z,40.53
2023-03-21T04:38:55.092Z,32.28
2023-03-21T04:41:22.550Z,32.85
2023-03-21T04:43:54.811Z,33.10
2023-03-21T04:46:23.572Z,31.95
2023-03-21T04:48:51.381Z,27.80
2023-03-21T04:51:31.413Z,33.10
2023-03-21T04:54:03.672Z,30.90
2023-03-21T04:56:37.960Z,30.38
2023-03-21T04:59:13.951Z,29.55
2023-03-21T05:01:46.325Z,27.75
2023-03-21T05:04:16.996Z,28.75
2023-03-21T05:06:46.341Z,34.28
2023-03-21T05:09:15.125Z,30.02
2023-03-21T05:11:43.082Z,31.33
2023-03-21T05:14:17.534Z,31.05
2023-03-21T05:19:23.467Z,38.85
2023-03-21T05:21:51.084Z,34.83
2023-03-21T05:24:21.077Z,39.00
2023-03-21T05:26:52.835Z,36.63
2023-03-21T05:29:23.071Z,41.83
2023-03-21T05:31:52.349Z,39.70
2023-03-21T05:34:20.036Z,39.25
2023-03-21T05:36:49.995Z,37.42
2023-03-21T05:39:22.389Z,34.58
2023-03-21T05:42:08.553Z,35.15
2023-03-21T05:44:44.030Z,28.40
2023-03-21T05:47:37.440Z,33.70
2023-03-21T05:50:07.120Z,36.03
2023-03-21T05:52:34.713Z,29.05
2023-03-21T05:55:04.133Z,31.17
2023-03-21T05:57:39.678Z,33.70
2023-03-21T06:00:10.875Z,28.85
2023-03-21T06:02:38.767Z,32.60
2023-03-21T06:05:07.404Z,28.80
2023-03-21T06:07:40.056Z,30.45
2023-03-21T06:10:09.454Z,30.13
2023-03-21T06:12:37.690Z,34.05
2023-03-21T06:17:34.926Z,32.10
2023-03-21T06:20:04.772Z,30.98
2023-03-21T06:22:32.430Z,34.40
2023-03-21T06:24:59.759Z,35.35
2023-03-21T06:27:27.595Z,29.88
2023-03-21T06:29:55.486Z,36.58
2023-03-21T06:32:23.149Z,32.67
2023-03-21T06:34:52.974Z,29.55
2023-03-21T06:37:20.545Z,28.83
2023-03-21T06:39:48.258Z,28.30
2023-03-21T06:42:16.131Z,28.27
2023-03-21T06:44:43.851Z,29.75
2023-03-21T06:47:11.856Z,37.45
2023-03-21T06:49:39.346Z,28.55
2023-03-21T06:52:08.397Z,33.90
2023-03-21T06:54:36.382Z,31.27
2023-03-21T06:57:08.080Z,30.73
2023-03-21T06:59:47.576Z,32.55
2023-03-21T07:02:16.126Z,31.55
2023-03-21T07:04:47.891Z,34.10
2023-03-21T07:07:18.285Z,36.03
2023-03-21T07:09:48.767Z,35.85
2023-03-21T07:12:16.618Z,33.33
2023-03-21T07:14:53.569Z,34.10
2023-03-21T07:17:21.801Z,27.70
2023-03-21T07:19:50.705Z,25.65
2023-03-21T07:22:23.321Z,37.72
2023-03-21T07:25:04.255Z,30.92
2023-03-21T07:27:33.420Z,24.50
2023-03-21T07:32:34.107Z,28.73
2023-03-21T07:35:01.984Z,26.40
2023-03-21T07:37:35.051Z,27.65
2023-03-21T07:42:37.254Z,26.38
2023-03-21T07:45:09.831Z,24.80
2023-03-21T07:47:37.332Z,26.33
2023-03-21T07:50:06.580Z,27.90
2023-03-21T07:52:36.879Z,31.80
2023-03-21T07:55:05.009Z,28.70
2023-03-21T08:00:03.706Z,24.23
2023-03-21T08:02:34.537Z,27.13
2023-03-21T08:05:08.269Z,26.45
2023-03-21T08:07:46.468Z,24.02
2023-03-21T08:10:14.698Z,27.88
2023-03-21T08:12:53.904Z,25.38
2023-03-21T08:15:24.570Z,25.92
2023-03-21T08:17:52.641Z,24.38
2023-03-21T08:20:25.067Z,24.00
2023-03-21T08:22:54.131Z,28.17
2023-03-21T08:25:24.920Z,24.35
2023-03-21T08:27:52.679Z,25.10
2023-03-21T08:30:26.978Z,22.88
2023-03-21T08:33:00.529Z,21.25
2023-03-21T08:35:29.753Z,27.10
2023-03-21T08:37:59.527Z,26.17
2023-03-21T08:40:27.557Z,21.50
2023-03-21T08:42:55.880Z,27.20
2023-03-21T08:45:23.928Z,19.58
2023-03-21T08:47:57.792Z,21.63
2023-03-21T08:50:31.797Z,21.67
2023-03-21T08:53:01.482Z,22.40
2023-03-21T08:55:39.776Z,20.73
2023-03-21T08:58:08.117Z,18.42
2023-03-21T09:00:36.838Z,24.33
2023-03-21T09:03:10.597Z,21.60
2023-03-21T09:05:39.834Z,17.00
2023-03-21T09:08:10.675Z,17.33
2023-03-21T09:10:41.304Z,19.42
2023-03-21T09:13:09.788Z,21.63
2023-03-21T09:15:40.760Z,14.75
2023-03-21T09:18:16.370Z,16.33
2023-03-21T09:20:50.493Z,16.10
2023-03-21T09:23:23.215Z,14.63
2023-03-21T09:25:51.957Z,14.88
2023-03-21T09:28:22.743Z,16.85
2023-03-21T09:30:50.948Z,13.48
2023-03-21T09:33:25.846Z,16.10
2023-03-21T09:35:58.043Z,12.48
2023-03-21T09:38:37.235Z,14.18
2023-03-21T09:41:16.402Z,14.82
2023-03-21T09:44:04.333Z,10.95
2023-03-21T09:46:43.740Z,11.68
2023-03-21T09:49:22.603Z,11.93
2023-03-21T09:51:54.977Z,11.05
2023-03-21T09:54:34.041Z,13.93
2023-03-21T09:57:19.883Z,9.38
2023-03-21T09:59:56.808Z,12.25
2023-03-21T10:02:41.368Z,12.55
2023-03-21T10:05:19.093Z,12.32
2023-03-21T10:08:01.303Z,11.60
2023-03-21T10:10:39.758Z,12.88
2023-03-21T10:13:16.205Z,13.63
2023-03-21T10:15:51.310Z,9.98
2023-03-21T10:18:22.841Z,12.73
2023-03-21T10:20:52.194Z,12.85
2023-03-21T10:23:22.800Z,12.30
2023-03-21T10:25:56.667Z,15.05
2023-03-21T10:28:27.868Z,12.50
2023-03-21T10:31:01.059Z,10.80
2023-03-21T10:33:34.064Z,13.88
2023-03-21T10:36:07.041Z,12.15
2023-03-21T10:38:35.944Z,14.35
2023-03-21T10:41:05.060Z,14.07
2023-03-21T10:43:38.092Z,18.85
2023-03-21T10:46:14.702Z,15.02
2023-03-21T10:48:48.402Z,15.48
2023-03-21T10:51:27.883Z,11.38
2023-03-21T10:54:01.792Z,18.35
2023-03-21T10:56:51.468Z,17.35
2023-03-21T10:59:23.419Z,13.90
2023-03-21T11:01:57.417Z,17.42
2023-03-21T11:04:34.432Z,13.48
2023-03-21T11:07:09.305Z,12.48
2023-03-21T11:09:53.513Z,14.45
2023-03-21T11:12:35.284Z,16.73
2023-03-21T11:15:27.310Z,13.70
2023-03-21T11:17:55.486Z,15.40
2023-03-21T11:22:58.312Z,21.90
2023-03-21T11:25:38.174Z,26.40
2023-03-21T11:28:12.567Z,13.70
2023-03-21T11:30:54.564Z,15.27
2023-03-21T11:33:23.603Z,12.60
2023-03-21T11:36:03.055Z,12.70
2023-03-21T11:38:36.954Z,14.73
2023-03-21T11:41:08.234Z,10.77
2023-03-21T11:43:41.698Z,12.93
2023-03-21T11:46:14.475Z,11.80
2023-03-21T11:48:45.178Z,12.18
2023-03-21T11:51:25.400Z,13.10
2023-03-21T11:54:07.267Z,15.55
2023-03-21T11:56:38.594Z,12.43
2023-03-21T11:59:23.497Z,13.23
2023-03-21T12:02:14.002Z,13.27
2023-03-21T12:04:47.032Z,15.10
2023-03-21T12:07:27.212Z,12.25
2023-03-21T12:10:12.148Z,17.75
2023-03-21T12:12:54.049Z,21.17
2023-03-21T12:15:29.628Z,12.88
2023-03-21T12:18:03.616Z,17.10
2023-03-21T12:20:47.398Z,14.98
2023-03-21T12:23:41.145Z,16.52
2023-03-21T12:26:23.998Z,12.80
2023-03-21T12:29:21.092Z,11.43
2023-03-21T12:32:05.964Z,13.77
2023-03-21T12:34:56.718Z,13.05
2023-03-21T12:37:33.993Z,13.65
2023-03-21T12:40:10.734Z,17.25
2023-03-21T12:42:53.113Z,14.88
2023-03-21T12:45:24.742Z,11.73
2023-03-21T12:47:59.758Z,13.60
2023-03-21T12:50:37.162Z,14.05
2023-03-21T12:53:23.221Z,12.18
2023-03-21T12:55:53.294Z,15.23
2023-03-21T12:58:26.404Z,10.98
2023-03-21T13:00:57.011Z,12.23
2023-03-21T13:03:40.869Z,13.15
2023-03-21T13:06:13.443Z,11.23
2023-03-21T13:08:49.279Z,9.10
2023-03-21T13:11:22.622Z,11.50
2023-03-21T13:14:01.428Z,8.55
2023-03-21T13:16:36.727Z,8.90
2023-03-21T13:19:18.601Z,10.77
2023-03-21T13:22:01.665Z,11.50
2023-03-21T13:24:38.290Z,12.07
2023-03-21T13:27:17.058Z,11.88
2023-03-21T13:29:47.666Z,8.88
2023-03-21T13:32:29.991Z,13.20
2023-03-21T13:35:01.250Z,8.98
2023-03-21T13:37:39.203Z,11.70
2023-03-21T13:40:23.035Z,8.75
2023-03-21T13:42:59.729Z,15.23
2023-03-21T13:45:33.636Z,9.95
2023-03-21T13:48:05.789Z,15.45
2023-03-21T13:51:01.412Z,8.05
2023-03-21T13:53:37.162Z,11.20
2023-03-21T13:56:24.182Z,13.10
2023-03-21T13:58:55.072Z,9.98
2023-03-21T14:01:31.862Z,10.02
2023-03-21T14:04:06.529Z,9.45
2023-03-21T14:06:43.960Z,10.07
2023-03-21T14:09:19.945Z,11.80
2023-03-21T14:11:48.954Z,10.38
2023-03-21T14:14:20.313Z,9.40
2023-03-21T14:16:52.819Z,10.75
2023-03-21T14:19:21.609Z,10.93
2023-03-21T14:21:53.931Z,11.25
2023-03-21T14:24:24.257Z,11.38
2023-03-21T14:26:55.803Z,11.10
2023-03-21T14:29:27.137Z,14.98
2023-03-21T14:31:56.848Z,9.77
2023-03-21T14:34:27.760Z,13.32
2023-03-21T14:36:58.975Z,13.90
2023-03-21T14:39:29.799Z,11.25
2023-03-21T14:42:04.559Z,10.65
2023-03-21T14:44:58.390Z,13.15
2023-03-21T14:47:28.416Z,11.07
2023-03-21T14:50:02.068Z,11.65
2023-03-21T14:52:35.155Z,9.52
2023-03-21T14:55:15.752Z,10.68
2023-03-21T14:57:48.534Z,11.13
2023-03-21T15:00:24.170Z,15.60
2023-03-21T15:02:58.906Z,11.85
2023-03-21T15:05:32.050Z,14.70
2023-03-21T15:08:15.995Z,13.70
2023-03-21T15:11:07.371Z,9.77
2023-03-21T15:13:47.843Z,9.18
2023-03-21T15:16:25.309Z,9.93
2023-03-21T15:19:10.894Z,9.73
2023-03-21T15:21:43.095Z,10.73
2023-03-21T15:24:23.176Z,11.75
2023-03-21T15:27:00.627Z,12.48
2023-03-21T15:29:43.621Z,12.48
2023-03-21T15:32:23.077Z,9.85
2023-03-21T15:35:10.745Z,10.52
2023-03-21T15:37:41.479Z,9.73
2023-03-21T15:40:22.128Z,10.48
2023-03-21T15:43:21.615Z,11.35
2023-03-21T15:45:56.323Z,8.80
2023-03-21T15:48:29.747Z,8.48
2023-03-21T15:51:06.604Z,10.38
2023-03-21T15:53:38.256Z,9.75
2023-03-21T15:56:16.666Z,9.02
2023-03-21T15:58:50.888Z,15.73
2023-03-21T16:01:25.762Z,6.97
2023-03-21T16:03:57.854Z,7.45
2023-03-21T16:06:34.238Z,12.15
2023-03-21T16:09:12.546Z,6.78
2023-03-21T16:11:48.390Z,9.63
2023-03-21T16:14:19.290Z,8.30
2023-03-21T16:16:50.106Z,8.15
2023-03-21T16:19:19.274Z,7.80
2023-03-21T16:21:47.021Z,8.60
2023-03-21T16:24:14.506Z,4.70
2023-03-21T16:26:47.812Z,8.20
2023-03-21T16:29:18.204Z,10.05
2023-03-21T16:31:48.519Z,7.97
2023-03-21T16:34:16.200Z,4.68
2023-03-21T16:36:45.139Z,5.68
2023-03-21T16:39:20.992Z,6.47
2023-03-21T16:41:53.682Z,8.32
2023-03-21T16:44:24.604Z,7.22
2023-03-21T16:46:52.634Z,10.77
2023-03-21T16:49:24.893Z,6.43
2023-03-21T16:51:54.970Z,5.95
2023-03-21T16:54:26.043Z,10.05
2023-03-21T16:56:59.733Z,11.32
2023-03-21T16:59:27.095Z,5.80
2023-03-21T17:01:58.825Z,6.10
2023-03-21T17:04:33.179Z,6.88
2023-03-21T17:07:02.151Z,5.85
2023-03-21T17:09:32.652Z,14.18
2023-03-21T17:12:02.813Z,6.38
2023-03-21T17:14:31.397Z,11.05
2023-03-21T17:16:58.917Z,6.30
2023-03-21T17:19:28.537Z,20.88
2023-03-21T17:21:55.708Z,37.20
2023-03-21T17:24:23.973Z,8.75
2023-03-21T17:26:51.245Z,5.13
2023-03-21T17:29:25.465Z,6.85
2023-03-21T17:31:53.077Z,7.70
2023-03-21T17:34:21.057Z,5.15
2023-03-21T17:39:20.242Z,9.60
2023-03-21T17:41:50.530Z,4.82
2023-03-21T17:44:18.375Z,7.70
2023-03-21T17:46:50.224Z,9.02
2023-03-21T17:49:22.021Z,4.43
2023-03-21T17:51:50.636Z,5.65
2023-03-21T17:54:18.374Z,6.53
2023-03-21T17:56:46.073Z,4.80
2023-03-21T17:59:15.251Z,7.15
2023-03-21T18:01:47.901Z,7.25
2023-03-21T18:04:18.140Z,5.18
2023-03-21T18:06:45.463Z,7.07
2023-03-21T18:09:13.318Z,4.45
2023-03-21T18:11:44.225Z,4.13
2023-03-21T18:14:18.241Z,8.10
2023-03-21T18:16:54.312Z,5.25
2023-03-21T18:19:21.655Z,6.40
2023-03-21T18:21:49.441Z,5.20
2023-03-21T18:24:20.726Z,6.05
2023-03-21T18:26:58.203Z,5.28
2023-03-21T18:30:19.653Z,6.18
2023-03-21T18:32:18.000Z,11.45
2023-03-21T18:34:46.784Z,2.20
2023-03-21T18:37:14.641Z,4.80
2023-03-21T18:39:46.601Z,11.60
2023-03-21T18:42:18.872Z,3.72
2023-03-21T18:44:48.716Z,5.25
2023-03-21T18:47:19.624Z,7.70
2023-03-21T18:50:13.784Z,5.60
2023-03-21T18:52:34.289Z,9.48
2023-03-21T18:55:02.655Z,9.25
2023-03-21T18:57:38.980Z,7.13
2023-03-21T19:00:12.950Z,7.53
2023-03-21T19:02:48.327Z,8.80
2023-03-21T19:05:16.611Z,5.40
2023-03-21T19:10:19.023Z,9.82
2023-03-21T19:12:53.107Z,7.30
2023-03-21T19:15:25.157Z,8.82
2023-03-21T19:18:49.487Z,6.68
2023-03-21T19:21:23.636Z,15.57
2023-03-21T19:26:39.655Z,14.27
2023-03-21T19:29:09.399Z,7.28
2023-03-21T19:31:36.893Z,12.98
2023-03-21T19:34:10.264Z,8.32
2023-03-21T19:36:37.819Z,6.82
2023-03-21T19:39:04.966Z,8.18
2023-03-21T19:41:32.767Z,10.75
2023-03-21T19:44:00.843Z,12.23
2023-03-21T19:46:28.174Z,10.90
2023-03-21T19:48:56.957Z,9.07
2023-03-21T19:51:29.838Z,11.00
2023-03-21T19:54:00.304Z,10.10
2023-03-21T19:56:28.049Z,10.63
2023-03-21T19:58:56.278Z,10.77
2023-03-21T20:01:24.873Z,11.50
2023-03-21T20:03:52.585Z,10.27
2023-03-21T20:06:22.529Z,6.35
2023-03-21T20:11:40.973Z,6.75
2023-03-21T20:14:08.661Z,7.55
2023-03-21T20:16:37.645Z,11.35
2023-03-21T20:19:08.908Z,11.93
2023-03-21T20:21:48.568Z,9.88
2023-03-21T20:24:20.728Z,10.10
2023-03-21T20:26:49.345Z,13.38
2023-03-21T20:30:07.122Z,11.10
2023-03-21T20:32:04.866Z,9.73
2023-03-21T20:34:36.901Z,134.55
2023-03-21T20:37:06.149Z,17.42
2023-03-21T20:39:35.543Z,94.93
2023-03-21T20:42:02.928Z,8.50
2023-03-21T20:45:03.040Z,13.18
2023-03-21T20:47:22.378Z,9.88
2023-03-21T20:49:50.103Z,10.07
2023-03-21T20:55:14.619Z,8.60
2023-03-21T20:57:42.290Z,13.02
2023-03-21T21:00:15.481Z,13.45
2023-03-21T21:02:44.788Z,12.98
2023-03-21T21:05:33.084Z,15.45
2023-03-21T21:08:04.101Z,19.27
2023-03-21T21:10:33.733Z,11.05
2023-03-21T21:13:02.016Z,12.68
2023-03-21T21:15:29.799Z,11.32
2023-03-21T21:18:07.403Z,9.55
2023-03-21T21:20:35.847Z,11.77
2023-03-21T21:23:03.165Z,11.68
2023-03-21T21:25:34.448Z,10.85
2023-03-21T21:28:03.833Z,9.50
2023-03-21T21:30:32.665Z,9.70
2023-03-21T21:33:01.233Z,10.40
2023-03-21T21:35:28.821Z,9.35
2023-03-21T21:37:59.467Z,12.90
2023-03-21T21:40:27.212Z,10.77
2023-03-21T21:42:56.632Z,8.18
2023-03-21T21:45:24.418Z,9.38
2023-03-21T21:47:52.102Z,7.15
2023-03-21T21:50:24.560Z,10.00
2023-03-21T21:52:52.972Z,8.77
2023-03-21T21:55:23.443Z,8.55
2023-03-21T21:57:54.094Z,10.68
2023-03-21T22:00:25.544Z,9.73
2023-03-21T22:02:54.847Z,7.97
2023-03-21T22:05:22.375Z,10.98
2023-03-21T22:07:54.257Z,11.88
2023-03-21T22:10:25.583Z,7.13
2023-03-21T22:12:55.881Z,6.80
2023-03-21T22:15:27.652Z,12.38
2023-03-21T22:17:54.957Z,7.40
2023-03-21T22:20:23.022Z,8.02
2023-03-21T22:22:51.658Z,4.82
2023-03-21T22:25:22.087Z,8.75
2023-03-21T22:27:49.434Z,13.75
2023-03-21T22:30:17.795Z,7.07
2023-03-21T22:32:56.375Z,6.78
2023-03-21T22:35:32.121Z,8.73
2023-03-21T22:38:02.359Z,7.70
2023-03-21T22:40:36.521Z,6.20
2023-03-21T22:45:34.963Z,7.85
2023-03-21T22:48:07.717Z,10.07
2023-03-21T22:50:35.193Z,5.25
2023-03-21T22:53:08.051Z,10.43
2023-03-21T22:55:35.757Z,6.22
2023-03-21T22:58:06.692Z,6.40
2023-03-21T23:00:34.795Z,7.15
2023-03-21T23:03:03.404Z,7.63
2023-03-21T23:05:31.489Z,4.20
2023-03-21T23:08:01.502Z,3.90
2023-03-21T23:10:32.100Z,6.88
2023-03-21T23:13:04.519Z,9.20
2023-03-21T23:15:32.295Z,5.80
2023-03-21T23:18:05.317Z,6.32
2023-03-21T23:20:33.134Z,8.65
2023-03-21T23:23:03.478Z,8.07
2023-03-21T23:25:31.297Z,7.45
2023-03-21T23:28:00.174Z,7.95
2023-03-21T23:30:27.493Z,7.07
2023-03-21T23:32:55.851Z,7.25
2023-03-21T23:35:24.722Z,8.05
2023-03-21T23:37:52.851Z,7.88
2023-03-21T23:40:23.504Z,7.57
2023-03-21T23:42:50.918Z,5.88
2023-03-21T23:45:20.364Z,8.63
2023-03-21T23:47:50.233Z,9.25
2023-03-21T23:50:17.758Z,6.43
2023-03-21T23:52:46.506Z,11.10
2023-03-21T23:55:13.635Z,7.30
2023-03-21T23:57:43.942Z,6.35
